createdAt,value
2023-04-06T00:03:44.408Z,7.03
2023-04-06T00:08:46.372Z,7.03
2023-04-06T00:13:48.293Z,6.60
2023-04-06T00:18:50.216Z,6.97
2023-04-06T00:23:52.094Z,7.18
2023-04-06T00:28:54.031Z,6.80
2023-04-06T00:33:56.232Z,6.93
2023-04-06T00:38:58.225Z,7.03
2023-04-06T00:44:00.318Z,6.80
2023-04-06T00:49:02.254Z,7.15
2023-04-06T00:54:04.383Z,6.97
2023-04-06T00:59:08.205Z,6.80
2023-04-06T01:04:10.804Z,6.82
2023-04-06T01:09:17.449Z,6.85
2023-04-06T01:14:20.430Z,7.00
2023-04-06T01:19:29.291Z,7.18
2023-04-06T01:24:31.986Z,6.53
2023-04-06T01:30:12.327Z,6.45
2023-04-06T01:35:28.067Z,6.57
2023-04-06T01:40:45.784Z,7.00
2023-04-06T01:45:48.221Z,6.28
2023-04-06T01:50:55.429Z,6.05
2023-04-06T01:56:03.298Z,6.90
2023-04-06T02:01:08.921Z,6.75
2023-04-06T02:06:23.537Z,6.78
2023-04-06T02:11:25.825Z,7.03
2023-04-06T02:16:30.941Z,7.13
2023-04-06T02:21:32.986Z,6.70
2023-04-06T02:26:35.014Z,6.27
2023-04-06T02:31:36.961Z,6.93
2023-04-06T02:36:40.058Z,6.80
2023-04-06T02:41:43.083Z,6.55
2023-04-06T02:46:47.110Z,7.28
2023-04-06T02:51:49.048Z,6.65
2023-04-06T02:56:58.460Z,7.93
2023-04-06T03:02:09.201Z,7.15
2023-04-06T03:07:11.945Z,6.90
2023-04-06T03:12:14.628Z,7.22
2023-04-06T03:17:36.468Z,6.95
2023-04-06T03:22:42.566Z,7.13
2023-04-06T03:27:48.449Z,7.05
2023-04-06T03:32:53.983Z,6.87
2023-04-06T03:37:58.761Z,7.65
2023-04-06T03:43:01.379Z,7.80
2023-04-06T03:48:04.615Z,7.60
2023-04-06T03:53:10.590Z,7.90
2023-04-06T03:58:12.503Z,7.73
2023-04-06T04:03:14.547Z,7.80
2023-04-06T04:08:17.679Z,7.78
2023-04-06T04:13:20.391Z,7.83
2023-04-06T04:18:25.466Z,8.00
2023-04-06T04:23:27.412Z,7.97
2023-04-06T04:28:29.608Z,8.47
2023-04-06T04:33:31.970Z,7.80
2023-04-06T04:38:37.162Z,8.15
2023-04-06T04:43:39.376Z,8.30
2023-04-06T04:48:41.725Z,8.57
2023-04-06T04:53:44.332Z,9.23
2023-04-06T04:58:55.449Z,8.83
2023-04-06T05:03:58.731Z,8.33
2023-04-06T05:09:01.092Z,9.43
2023-04-06T05:14:07.240Z,10.00
2023-04-06T05:19:09.696Z,9.93
2023-04-06T05:24:17.494Z,9.23
2023-04-06T05:29:22.354Z,9.93
2023-04-06T05:34:24.884Z,9.83
2023-04-06T05:39:27.326Z,9.60
2023-04-06T05:44:29.758Z,9.50
2023-04-06T05:49:43.020Z,12.95
2023-04-06T05:54:51.186Z,12.32
2023-04-06T05:59:53.388Z,13.38
2023-04-06T06:04:57.652Z,13.43
2023-04-06T06:10:01.819Z,12.60
2023-04-06T06:15:09.370Z,11.65
2023-04-06T06:20:16.276Z,11.60
2023-04-06T06:25:19.401Z,11.68
2023-04-06T06:30:23.560Z,14.52
2023-04-06T06:35:26.703Z,15.75
2023-04-06T06:40:29.387Z,14.95
2023-04-06T06:45:32.270Z,13.95
2023-04-06T06:50:34.533Z,14.07
2023-04-06T06:55:36.456Z,12.20
2023-04-06T07:00:38.463Z,13.25
2023-04-06T07:05:46.480Z,13.45
2023-04-06T07:10:48.898Z,16.27
2023-04-06T07:15:51.750Z,18.15
2023-04-06T07:20:53.672Z,18.23
2023-04-06T07:25:55.734Z,17.67
2023-04-06T07:30:57.458Z,19.85
2023-04-06T07:36:00.131Z,18.92
2023-04-06T07:41:04.058Z,18.90
2023-04-06T07:46:07.210Z,20.52
2023-04-06T07:51:09.908Z,20.13
2023-04-06T07:56:16.478Z,18.73
2023-04-06T08:01:18.294Z,19.20
2023-04-06T08:06:20.224Z,19.85
2023-04-06T08:11:22.395Z,19.75
2023-04-06T08:16:25.033Z,20.92
2023-04-06T08:21:26.766Z,19.80
2023-04-06T08:26:29.116Z,19.42
2023-04-06T08:31:31.677Z,19.35
2023-04-06T08:36:33.581Z,20.90
2023-04-06T08:41:35.852Z,20.25
2023-04-06T08:46:37.655Z,20.20
2023-04-06T08:51:39.784Z,19.27
2023-04-06T08:56:42.312Z,20.40
2023-04-06T09:01:46.959Z,19.60
2023-04-06T09:06:48.894Z,19.20
2023-04-06T09:11:52.572Z,18.85
2023-04-06T09:16:54.262Z,19.17
2023-04-06T09:22:08.340Z,19.73
2023-04-06T09:27:10.721Z,19.20
2023-04-06T09:32:13.226Z,18.52
2023-04-06T09:37:20.016Z,19.90
2023-04-06T09:42:26.595Z,19.15
2023-04-06T09:47:29.724Z,19.60
2023-04-06T09:52:42.919Z,19.83
2023-04-06T09:58:01.550Z,19.00
2023-04-06T10:03:11.598Z,19.25
2023-04-06T10:08:18.388Z,18.90
2023-04-06T10:13:20.665Z,20.05
2023-04-06T10:24:46.609Z,20.20
2023-04-06T10:35:19.876Z,19.77
2023-04-06T10:40:56.840Z,18.63
2023-04-06T10:46:01.716Z,19.90
2023-04-06T10:51:44.469Z,18.73
2023-04-06T10:56:53.407Z,19.17
2023-04-06T11:01:56.986Z,19.45
2023-04-06T11:06:59.047Z,18.83
2023-04-06T11:13:10.408Z,19.65
2023-04-06T11:18:33.954Z,19.55
2023-04-06T11:36:10.593Z,19.30
2023-04-06T11:41:14.172Z,19.23
2023-04-06T11:46:20.808Z,19.30
2023-04-06T11:51:31.926Z,18.70
2023-04-06T11:56:33.941Z,19.40
2023-04-06T12:01:49.097Z,18.90
2023-04-06T12:06:52.171Z,18.92
2023-04-06T12:11:53.977Z,19.20
2023-04-06T12:16:55.916Z,19.20
2023-04-06T12:22:00.090Z,19.50
2023-04-06T12:27:09.387Z,19.08
2023-04-06T12:32:12.773Z,19.27
2023-04-06T12:37:14.459Z,18.83
2023-04-06T12:42:16.832Z,19.35
2023-04-06T12:47:19.091Z,18.65
2023-04-06T12:52:21.326Z,18.27
2023-04-06T12:57:23.034Z,18.88
2023-04-06T13:02:27.979Z,18.40
2023-04-06T13:07:29.723Z,19.13
2023-04-06T13:12:31.462Z,17.83
2023-04-06T13:17:33.186Z,19.23
2023-04-06T13:22:35.143Z,19.65
2023-04-06T13:27:36.878Z,19.85
2023-04-06T13:32:38.595Z,19.10
2023-04-06T13:37:40.427Z,19.08
2023-04-06T13:42:44.951Z,18.40
2023-04-06T13:47:46.895Z,19.00
2023-04-06T13:52:49.991Z,18.00
2023-04-06T13:57:52.152Z,19.83
2023-04-06T14:02:56.969Z,19.30
2023-04-06T14:07:58.664Z,19.17
2023-04-06T14:13:00.313Z,19.48
2023-04-06T14:18:02.567Z,20.50
2023-04-06T14:23:06.857Z,19.10
2023-04-06T14:28:08.513Z,19.08
2023-04-06T14:33:10.150Z,19.35
2023-04-06T14:38:11.820Z,19.10
2023-04-06T14:43:13.454Z,19.85
2023-04-06T14:48:16.779Z,18.77
2023-04-06T14:53:18.420Z,18.50
2023-04-06T14:58:20.910Z,18.20
2023-04-06T15:03:22.800Z,20.50
2023-04-06T15:08:24.989Z,20.02
2023-04-06T15:13:26.591Z,20.75
2023-04-06T15:18:29.633Z,20.95
2023-04-06T15:23:31.383Z,20.10
2023-04-06T15:28:33.023Z,22.13
2023-04-06T15:33:34.603Z,21.98
2023-04-06T15:38:36.249Z,20.75
2023-04-06T15:43:39.062Z,21.63
2023-04-06T15:48:42.198Z,20.85
2023-04-06T15:53:44.226Z,21.92
2023-04-06T15:58:46.035Z,22.38
2023-04-06T16:03:48.093Z,22.52
2023-04-06T16:08:49.814Z,22.58
2023-04-06T16:13:55.185Z,21.58
2023-04-06T16:18:57.283Z,21.55
2023-04-06T16:23:59.905Z,21.63
2023-04-06T16:29:02.104Z,21.75
2023-04-06T16:34:03.850Z,22.25
2023-04-06T16:39:05.462Z,22.50
2023-04-06T16:44:07.302Z,22.00
2023-04-06T16:49:08.954Z,21.80
2023-04-06T16:54:10.763Z,21.88
2023-04-06T16:59:12.584Z,22.08
2023-04-06T17:04:14.297Z,21.38
2023-04-06T17:09:16.482Z,22.25
2023-04-06T17:14:19.111Z,21.65
2023-04-06T17:19:20.735Z,22.92
2023-04-06T17:24:22.397Z,23.33
2023-04-06T17:29:24.071Z,23.10
2023-04-06T17:34:26.225Z,23.30
2023-04-06T17:39:27.805Z,22.85
2023-04-06T17:44:29.396Z,22.77
2023-04-06T17:49:31.330Z,25.23
2023-04-06T17:54:36.935Z,23.63
2023-04-06T17:59:38.805Z,24.80
2023-04-06T18:04:44.298Z,24.25
2023-04-06T18:09:46.044Z,23.95
2023-04-06T18:14:47.672Z,23.90
2023-04-06T18:19:49.298Z,22.42
2023-04-06T18:24:51.252Z,22.17
2023-04-06T18:29:53.323Z,23.17
2023-04-06T18:34:57.508Z,21.98
2023-04-06T18:39:59.136Z,22.25
2023-04-06T18:45:00.916Z,22.98
2023-04-06T18:50:02.552Z,20.40
2023-04-06T18:55:04.625Z,22.92
2023-04-06T19:00:06.927Z,21.92
2023-04-06T19:05:10.747Z,21.65
2023-04-06T19:10:12.593Z,20.98
2023-04-06T19:15:14.665Z,22.67
2023-04-06T19:20:16.589Z,21.40
2023-04-06T19:25:18.854Z,21.90
2023-04-06T19:30:20.812Z,20.88
2023-04-06T19:35:22.750Z,19.70
2023-04-06T19:40:24.593Z,18.75
2023-04-06T19:45:26.473Z,18.70
2023-04-06T19:50:28.444Z,19.25
2023-04-06T19:55:30.991Z,19.73
2023-04-06T20:00:32.945Z,17.20
2023-04-06T20:05:34.972Z,17.65
2023-04-06T20:10:36.880Z,17.30
2023-04-06T20:15:38.756Z,18.35
2023-04-06T20:20:40.828Z,18.50
2023-04-06T20:25:42.711Z,16.38
2023-04-06T20:30:44.591Z,18.33
2023-04-06T20:35:46.364Z,17.60
2023-04-06T20:40:48.772Z,17.63
2023-04-06T20:45:57.800Z,17.13
2023-04-06T20:50:59.639Z,17.33
2023-04-06T20:56:02.522Z,17.10
2023-04-06T21:01:15.044Z,18.57
2023-04-06T21:06:16.928Z,17.07
2023-04-06T21:11:18.775Z,16.90
2023-04-06T21:16:21.006Z,16.27
2023-04-06T21:21:22.945Z,16.50
2023-04-06T21:26:24.771Z,15.57
2023-04-06T21:31:26.662Z,15.53
2023-04-06T21:36:28.790Z,15.52
2023-04-06T21:41:31.079Z,15.00
2023-04-06T21:46:33.414Z,15.33
2023-04-06T21:51:35.362Z,14.63
2023-04-06T21:56:37.272Z,14.87
2023-04-06T22:01:39.221Z,13.80
2023-04-06T22:06:41.953Z,14.20
2023-04-06T22:11:43.770Z,14.27
2023-04-06T22:16:46.007Z,14.00
2023-04-06T22:21:48.008Z,13.53
2023-04-06T22:26:50.019Z,14.53
2023-04-06T22:31:51.955Z,15.20
2023-04-06T22:36:53.816Z,13.07
2023-04-06T22:41:55.662Z,13.17
2023-04-06T22:46:57.556Z,13.37
2023-04-06T22:51:59.392Z,13.53
2023-04-06T22:57:01.247Z,13.20
2023-04-06T23:02:03.469Z,13.97
2023-04-06T23:07:06.044Z,13.83
2023-04-06T23:12:08.108Z,13.30
2023-04-06T23:17:09.995Z,14.63
2023-04-06T23:22:11.910Z,13.40
2023-04-06T23:27:13.743Z,12.57
2023-04-06T23:32:15.818Z,12.97
2023-04-06T23:37:17.771Z,13.27
2023-04-06T23:42:19.633Z,13.53
2023-04-06T23:47:21.482Z,14.17
2023-04-06T23:52:23.357Z,14.03
2023-04-06T23:57:25.384Z,13.50
